Time;durP1;ratioP1;P1;durP2;ratioP2;P2;SDS_P1;SDS_P2;PMS_P1;PMS_P2;Temp;Humidity;BMP_temperature;BMP_pressure;BME280_temperature;BME280_humidity;BME280_pressure;Samples;Min_cycle;Max_cycle;Signal;HPM_P1;HPM_P2
2021/08/22 00:00:34;;;;;;;13.43;8.00;;;21.80;83.90;;;;;;1872534;76;21089;-47
2021/08/22 00:03:04;;;;;;;12.55;8.70;;;21.70;83.80;;;;;;1872450;77;21156;-45
2021/08/22 00:05:33;;;;;;;12.40;7.78;;;21.60;83.50;;;;;;1872440;75;21090;-49
2021/08/22 00:08:03;;;;;;;12.10;7.83;;;21.50;83.50;;;;;;1872461;76;21027;-48
2021/08/22 00:10:33;;;;;;;9.60;8.50;;;21.40;83.90;;;;;;1872642;75;21496;-46
2021/08/22 00:13:03;;;;;;;8.95;7.10;;;21.30;84.50;;;;;;1872490;77;21311;-49
2021/08/22 00:15:33;;;;;;;10.80;7.78;;;21.30;84.70;;;;;;1872433;77;21031;-50
2021/08/22 00:18:03;;;;;;;10.80;7.17;;;21.30;84.70;;;;;;1872477;77;21097;-49
2021/08/22 00:20:32;;;;;;;13.53;8.15;;;21.30;84.70;;;;;;1872438;76;21007;-49
2021/08/22 00:23:02;;;;;;;10.08;7.50;;;21.40;84.70;;;;;;1872473;77;21007;-46
2021/08/22 00:25:31;;;;;;;15.20;8.28;;;21.40;84.70;;;;;;1872539;75;21030;-48
2021/08/22 00:28:01;;;;;;;10.10;7.10;;;21.40;84.60;;;;;;1872552;77;21003;-49
2021/08/22 00:30:30;;;;;;;9.48;7.47;;;21.40;84.60;;;;;;1872700;77;21121;-49
2021/08/22 00:32:59;;;;;;;11.12;7.25;;;21.40;84.50;;;;;;1873079;76;21101;-48
2021/08/22 00:35:29;;;;;;;10.05;8.10;;;21.40;84.60;;;;;;1878608;75;21045;-48
2021/08/22 00:37:59;;;;;;;11.43;7.72;;;21.40;84.60;;;;;;1894074;76;21089;-49
2021/08/22 00:40:28;;;;;;;10.35;7.22;;;21.40;84.60;;;;;;1894109;75;21026;-49
2021/08/22 00:42:58;;;;;;;8.23;7.20;;;21.40;84.50;;;;;;1894223;76;21022;-49
2021/08/22 00:45:27;;;;;;;11.12;7.15;;;21.30;84.50;;;;;;1894105;75;21022;-48
2021/08/22 00:47:57;;;;;;;13.10;7.30;;;21.20;84.30;;;;;;1894074;76;21034;-48
2021/08/22 00:50:26;;;;;;;10.05;7.25;;;21.20;84.60;;;;;;1894215;76;21030;-49
2021/08/22 00:52:56;;;;;;;12.73;6.60;;;21.10;84.70;;;;;;1894153;76;21038;-48
2021/08/22 00:55:25;;;;;;;12.20;7.62;;;21.10;84.80;;;;;;1894242;76;21155;-49
2021/08/22 00:57:54;;;;;;;9.15;7.20;;;21.10;84.70;;;;;;1894074;76;21135;-50
2021/08/22 01:00:24;;;;;;;11.12;7.50;;;21.10;84.90;;;;;;1894294;76;21128;-46
2021/08/22 01:03:05;;;;;;;12.05;7.58;;;21.20;85.10;;;;;;1894124;76;21065;-48
2021/08/22 01:05:52;;;;;;;8.18;7.30;;;21.20;85.00;;;;;;1894085;76;21534;-49
2021/08/22 01:08:27;;;;;;;10.58;7.53;;;21.20;85.00;;;;;;1892269;75;21512;-49
2021/08/22 01:11:02;;;;;;;10.55;6.87;;;21.20;84.80;;;;;;1893872;75;21514;-51
2021/08/22 01:13:37;;;;;;;9.75;7.25;;;21.20;84.90;;;;;;1892935;75;21496;-47
2021/08/22 01:16:08;;;;;;;9.15;6.58;;;21.20;85.00;;;;;;1894390;75;21080;-47
2021/08/22 01:18:40;;;;;;;12.37;7.42;;;21.20;85.00;;;;;;1894197;76;21100;-48
2021/08/22 01:21:14;;;;;;;13.55;8.00;;;21.20;84.90;;;;;;1894250;75;21109;-46
2021/08/22 01:23:46;;;;;;;9.68;6.90;;;21.20;84.50;;;;;;1894273;76;21026;-46
2021/08/22 01:26:17;;;;;;;10.32;7.95;;;21.20;84.40;;;;;;1892786;75;21035;-50
2021/08/22 01:28:49;;;;;;;10.70;7.80;;;21.00;84.40;;;;;;1894075;75;21030;-49
2021/08/22 01:31:23;;;;;;;11.45;7.08;;;21.00;84.70;;;;;;1894097;76;21084;-48
2021/08/22 01:33:55;;;;;;;10.25;7.12;;;21.00;84.80;;;;;;1894213;75;21026;-47
2021/08/22 01:36:24;;;;;;;11.65;7.55;;;20.90;84.50;;;;;;1884888;74;21180;-46
2021/08/22 01:38:55;;;;;;;11.85;7.72;;;20.80;84.40;;;;;;1872643;77;21566;-47
2021/08/22 01:41:25;;;;;;;10.93;7.70;;;20.70;84.80;;;;;;1872667;77;21039;-48
2021/08/22 01:43:56;;;;;;;8.35;7.15;;;20.70;85.50;;;;;;1872608;77;21007;-48
2021/08/22 01:46:36;;;;;;;10.00;7.50;;;20.70;85.60;;;;;;1872564;77;21097;-49
2021/08/22 01:49:08;;;;;;;9.38;6.90;;;20.70;85.60;;;;;;1872519;77;21119;-48
2021/08/22 01:51:38;;;;;;;11.48;7.12;;;20.70;85.70;;;;;;1872661;77;21039;-49
2021/08/22 01:54:09;;;;;;;9.58;6.87;;;20.80;85.70;;;;;;1872589;77;21100;-47
2021/08/22 01:56:40;;;;;;;10.15;7.30;;;20.80;85.50;;;;;;1872560;75;21023;-50
2021/08/22 01:59:10;;;;;;;13.48;7.78;;;20.90;85.60;;;;;;1872712;77;21027;-49
2021/08/22 02:01:40;;;;;;;18.67;8.43;;;20.90;85.50;;;;;;1872662;76;21093;-48
2021/08/22 02:04:15;;;;;;;12.30;7.15;;;20.90;85.60;;;;;;1872590;76;21047;-46
2021/08/22 02:06:56;;;;;;;14.90;7.75;;;20.90;85.80;;;;;;1872685;77;21501;-47
2021/08/22 02:09:28;;;;;;;14.83;8.15;;;20.90;85.80;;;;;;1871904;76;21046;-45
2021/08/22 02:12:00;;;;;;;9.50;7.50;;;21.00;85.80;;;;;;1872397;76;21043;-46
2021/08/22 02:14:32;;;;;;;10.28;7.12;;;21.00;85.60;;;;;;1871839;77;21058;-49
2021/08/22 02:17:04;;;;;;;9.60;7.25;;;21.00;85.60;;;;;;1872688;77;21065;-48
2021/08/22 02:19:35;;;;;;;10.58;8.25;;;21.00;85.60;;;;;;1872683;77;21523;-48
2021/08/22 02:22:05;;;;;;;11.55;7.03;;;21.00;86.00;;;;;;1872562;77;21140;-50
2021/08/22 02:24:35;;;;;;;11.95;7.42;;;21.10;85.50;;;;;;1872493;77;21144;-49
2021/08/22 02:27:04;;;;;;;10.68;6.50;;;21.00;85.60;;;;;;1872582;76;21003;-47
2021/08/22 02:29:35;;;;;;;11.10;7.28;;;21.00;85.70;;;;;;1872682;77;21027;-49
2021/08/22 02:32:04;;;;;;;9.18;6.83;;;21.00;85.70;;;;;;1871916;76;21566;-49
2021/08/22 02:34:34;;;;;;;8.68;6.53;;;21.00;85.80;;;;;;1872579;77;21083;-50
2021/08/22 02:37:04;;;;;;;11.78;7.12;;;21.00;86.00;;;;;;1872536;75;21069;-46
2021/08/22 02:39:33;;;;;;;12.15;7.62;;;21.00;86.10;;;;;;1872563;75;21007;-47
2021/08/22 02:42:04;;;;;;;12.50;8.23;;;21.00;86.10;;;;;;1872669;77;21035;-49
2021/08/22 02:44:33;;;;;;;11.85;8.40;;;21.00;86.00;;;;;;1872524;77;21003;-49
2021/08/22 02:47:03;;;;;;;9.80;8.73;;;21.00;86.10;;;;;;1872556;77;21047;-46
2021/08/22 02:49:32;;;;;;;14.33;10.18;;;21.00;85.80;;;;;;1872497;77;21023;-46
2021/08/22 02:52:02;;;;;;;13.40;10.55;;;21.00;85.50;;;;;;1872486;77;21046;-48
2021/08/22 02:54:31;;;;;;;15.95;11.48;;;20.90;85.60;;;;;;1872551;75;21023;-50
2021/08/22 02:57:01;;;;;;;14.10;9.68;;;20.90;85.80;;;;;;1872528;77;21044;-48
2021/08/22 02:59:30;;;;;;;15.80;8.90;;;20.90;86.00;;;;;;1872575;77;21019;-46
2021/08/22 03:02:00;;;;;;;17.27;11.90;;;20.90;86.10;;;;;;1872523;76;21019;-50
2021/08/22 03:04:29;;;;;;;13.90;10.10;;;20.90;86.00;;;;;;1872496;77;21011;-49
2021/08/22 03:06:59;;;;;;;11.97;8.88;;;20.90;86.00;;;;;;1872613;77;21016;-49
2021/08/22 03:09:28;;;;;;;11.05;8.03;;;20.90;86.10;;;;;;1872501;76;21023;-49
2021/08/22 03:11:58;;;;;;;11.68;7.03;;;20.90;86.30;;;;;;1872605;77;21031;-48
2021/08/22 03:14:28;;;;;;;10.88;8.05;;;21.00;86.30;;;;;;1872542;77;21117;-48
2021/08/22 03:16:57;;;;;;;16.20;7.85;;;21.00;86.00;;;;;;1872601;77;21038;-49
2021/08/22 03:19:27;;;;;;;9.78;7.37;;;21.10;85.20;;;;;;1872545;75;21022;-49
2021/08/22 03:21:56;;;;;;;16.67;7.20;;;21.00;85.10;;;;;;1872506;77;21031;-49
2021/08/22 03:24:26;;;;;;;9.48;6.92;;;20.90;85.70;;;;;;1872604;77;21105;-50
2021/08/22 03:26:55;;;;;;;9.35;6.87;;;20.90;85.90;;;;;;1872569;77;21058;-47
2021/08/22 03:29:24;;;;;;;10.88;7.50;;;21.00;86.00;;;;;;1872413;77;21089;-46
2021/08/22 03:31:54;;;;;;;10.38;6.85;;;21.10;86.20;;;;;;1872406;77;21098;-46
2021/08/22 03:34:23;;;;;;;16.42;9.15;;;21.10;86.10;;;;;;1872431;77;21021;-49
2021/08/22 03:36:53;;;;;;;8.40;7.45;;;21.20;86.10;;;;;;1875398;76;21250;-47
2021/08/22 03:39:23;;;;;;;11.95;7.35;;;21.30;86.10;;;;;;1893974;76;21046;-49
2021/08/22 03:41:52;;;;;;;13.25;8.30;;;21.40;86.10;;;;;;1893860;74;21076;-48
2021/08/22 03:44:21;;;;;;;14.83;7.60;;;21.40;85.40;;;;;;1894100;76;21006;-48
2021/08/22 03:46:51;;;;;;;14.73;7.87;;;21.40;84.80;;;;;;1894026;74;21489;-48
2021/08/22 03:49:21;;;;;;;12.50;7.50;;;21.40;85.00;;;;;;1893965;76;21022;-47
2021/08/22 03:51:50;;;;;;;13.38;8.10;;;21.40;85.20;;;;;;1893965;76;21084;-49
2021/08/22 03:54:20;;;;;;;9.80;6.80;;;21.40;84.90;;;;;;1894083;75;21509;-49
2021/08/22 03:56:49;;;;;;;9.43;7.45;;;21.40;85.10;;;;;;1894022;76;21015;-47
2021/08/22 03:59:18;;;;;;;14.25;7.20;;;21.50;85.40;;;;;;1893986;76;21092;-49
2021/08/22 04:01:48;;;;;;;11.38;7.42;;;21.60;85.10;;;;;;1893940;76;20999;-48
2021/08/22 04:04:19;;;;;;;10.60;6.87;;;21.70;84.90;;;;;;1892869;75;21074;-46
2021/08/22 04:06:49;;;;;;;8.85;6.78;;;21.80;84.80;;;;;;1893990;74;21026;-49
2021/08/22 04:09:20;;;;;;;10.55;6.87;;;21.90;84.70;;;;;;1894090;76;21030;-49
2021/08/22 04:11:52;;;;;;;11.48;10.13;;;22.00;84.70;;;;;;1894204;76;21542;-49
2021/08/22 04:14:21;;;;;;;10.90;6.75;;;22.10;84.50;;;;;;1893396;75;21006;-48
2021/08/22 04:16:50;;;;;;;8.95;6.67;;;22.20;84.30;;;;;;1893980;76;21092;-48
2021/08/22 04:19:20;;;;;;;24.70;14.35;;;22.30;84.10;;;;;;1894208;75;21112;-49
2021/08/22 04:21:49;;;;;;;10.68;8.15;;;22.40;84.00;;;;;;1894100;76;21030;-49
2021/08/22 04:24:19;;;;;;;13.98;8.33;;;22.40;83.70;;;;;;1893998;76;21136;-49
2021/08/22 04:26:49;;;;;;;9.60;7.12;;;22.50;83.50;;;;;;1894008;75;21002;-50
2021/08/22 04:29:19;;;;;;;9.90;6.83;;;22.60;83.30;;;;;;1894184;76;21042;-47
2021/08/22 04:31:49;;;;;;;9.93;6.35;;;22.70;83.30;;;;;;1894096;75;21084;-46
2021/08/22 04:34:18;;;;;;;13.68;6.55;;;22.70;83.30;;;;;;1894270;74;20994;-49
2021/08/22 04:36:48;;;;;;;16.50;7.35;;;22.80;83.30;;;;;;1894230;76;21042;-50
2021/08/22 04:39:18;;;;;;;9.20;6.53;;;22.90;83.20;;;;;;1874406;75;21063;-49
2021/08/22 04:41:47;;;;;;;10.78;6.50;;;23.00;83.00;;;;;;1872657;77;21097;-50
2021/08/22 04:44:17;;;;;;;8.78;6.78;;;23.10;82.80;;;;;;1872661;77;21019;-47
2021/08/22 04:46:46;;;;;;;12.23;6.90;;;23.20;82.60;;;;;;1872787;77;21072;-47
2021/08/22 04:49:16;;;;;;;11.88;6.53;;;23.30;82.40;;;;;;1872659;76;21218;-49
2021/08/22 04:51:45;;;;;;;10.48;6.10;;;23.40;82.20;;;;;;1872677;76;21031;-49
2021/08/22 04:54:15;;;;;;;9.55;6.95;;;23.50;82.30;;;;;;1872790;76;21031;-48
2021/08/22 04:56:44;;;;;;;10.75;6.70;;;23.60;82.00;;;;;;1872115;77;21023;-50
2021/08/22 04:59:14;;;;;;;9.60;6.62;;;23.70;81.60;;;;;;1872540;77;21003;-49
2021/08/22 05:01:43;;;;;;;19.52;7.50;;;23.70;80.90;;;;;;1872463;77;21027;-51
2021/08/22 05:04:12;;;;;;;52.35;30.85;;;23.70;80.50;;;;;;1871697;77;21160;-48
2021/08/22 05:06:42;;;;;;;19.67;9.93;;;23.70;80.50;;;;;;1872621;77;21031;-48
2021/08/22 05:09:11;;;;;;;9.95;6.42;;;23.80;80.60;;;;;;1872504;76;21104;-50
2021/08/22 05:11:40;;;;;;;11.83;7.15;;;23.80;80.50;;;;;;1872530;77;21105;-49
2021/08/22 05:14:10;;;;;;;18.10;9.28;;;23.80;80.60;;;;;;1872487;77;21031;-50
2021/08/22 05:16:41;;;;;;;21.25;14.13;;;23.80;80.20;;;;;;1872540;75;21093;-50
2021/08/22 05:19:10;;;;;;;15.32;9.50;;;23.70;79.90;;;;;;1872650;77;21019;-50
2021/08/22 05:21:39;;;;;;;16.37;9.25;;;23.70;80.20;;;;;;1872504;77;21039;-50
2021/08/22 05:24:09;;;;;;;11.57;6.50;;;23.70;79.90;;;;;;1872659;75;21055;-50
2021/08/22 05:26:39;;;;;;;8.33;6.10;;;23.70;79.90;;;;;;1872479;76;21069;-50
2021/08/22 05:29:08;;;;;;;9.23;6.58;;;23.80;80.00;;;;;;1872671;77;21070;-51
2021/08/22 05:31:38;;;;;;;38.92;25.85;;;23.90;79.90;;;;;;1872563;77;21031;-50
2021/08/22 05:34:07;;;;;;;10.20;6.60;;;24.00;79.60;;;;;;1872627;75;21442;-50
2021/08/22 05:36:37;;;;;;;11.00;6.25;;;24.20;79.20;;;;;;1872517;76;21031;-50
2021/08/22 05:39:08;;;;;;;12.18;5.25;;;24.20;78.80;;;;;;1872526;76;21067;-50
2021/08/22 05:41:37;;;;;;;9.83;7.08;;;24.40;78.80;;;;;;1872640;77;21426;-50
2021/08/22 05:44:07;;;;;;;9.70;8.10;;;24.50;78.10;;;;;;1872438;75;21071;-50
2021/08/22 05:46:36;;;;;;;11.28;5.97;;;24.60;78.00;;;;;;1872552;76;21094;-50
2021/08/22 05:49:05;;;;;;;9.30;5.90;;;24.70;77.60;;;;;;1872698;77;21117;-50
2021/08/22 05:51:34;;;;;;;9.10;6.28;;;24.80;77.30;;;;;;1872518;75;20995;-50
2021/08/22 05:54:04;;;;;;;9.25;5.87;;;24.80;76.80;;;;;;1872621;77;21043;-49
2021/08/22 05:56:33;;;;;;;7.55;6.20;;;24.80;76.90;;;;;;1872534;75;21058;-49
2021/08/22 05:59:03;;;;;;;10.23;6.08;;;24.90;77.00;;;;;;1872502;76;21096;-49
2021/08/22 06:01:33;;;;;;;11.83;5.58;;;24.90;77.20;;;;;;1872673;76;21150;-49
2021/08/22 06:04:02;;;;;;;8.23;5.65;;;25.00;77.10;;;;;;1872531;77;21015;-49
2021/08/22 06:06:32;;;;;;;7.25;5.90;;;25.10;76.90;;;;;;1872546;77;21039;-48
2021/08/22 06:09:01;;;;;;;11.08;5.75;;;25.10;76.60;;;;;;1872665;77;21031;-49
2021/08/22 06:11:31;;;;;;;7.78;5.65;;;25.10;76.20;;;;;;1872482;77;21007;-49
2021/08/22 06:14:00;;;;;;;9.23;6.03;;;25.20;76.40;;;;;;1872714;77;21035;-48
2021/08/22 06:16:29;;;;;;;7.08;5.67;;;25.20;76.20;;;;;;1872685;77;21096;-50
2021/08/22 06:18:59;;;;;;;9.93;6.45;;;25.20;75.70;;;;;;1872510;77;21081;-50
2021/08/22 06:21:28;;;;;;;13.38;7.83;;;25.20;75.70;;;;;;1872671;77;21144;-48
2021/08/22 06:23:58;;;;;;;10.00;6.47;;;25.30;76.00;;;;;;1872545;76;21027;-50
2021/08/22 06:26:28;;;;;;;7.65;5.70;;;25.30;76.00;;;;;;1872557;77;21027;-49
2021/08/22 06:28:58;;;;;;;8.30;5.83;;;25.40;75.90;;;;;;1872545;76;21121;-49
2021/08/22 06:31:27;;;;;;;8.35;6.50;;;25.40;75.30;;;;;;1872532;75;21081;-50
2021/08/22 06:33:56;;;;;;;7.70;5.53;;;25.50;74.90;;;;;;1872541;77;21058;-50
2021/08/22 06:36:25;;;;;;;13.22;7.35;;;25.60;75.20;;;;;;1872624;75;21449;-49
2021/08/22 06:38:55;;;;;;;8.00;5.70;;;25.60;75.00;;;;;;1878234;76;21479;-47
2021/08/22 06:41:24;;;;;;;6.85;6.08;;;25.60;74.90;;;;;;1894143;76;21030;-50
2021/08/22 06:43:53;;;;;;;11.15;6.70;;;25.70;74.30;;;;;;1894015;76;21006;-49
2021/08/22 06:46:22;;;;;;;9.58;7.00;;;25.70;74.40;;;;;;1894010;76;21452;-49
2021/08/22 06:48:52;;;;;;;8.40;6.03;;;25.70;74.10;;;;;;1893990;74;21073;-47
2021/08/22 06:51:21;;;;;;;6.78;5.28;;;25.80;73.60;;;;;;1893894;74;21088;-50
2021/08/22 06:53:51;;;;;;;6.97;5.75;;;25.70;72.60;;;;;;1893992;76;21022;-51
2021/08/22 06:56:20;;;;;;;9.05;5.17;;;25.70;72.60;;;;;;1893885;76;21006;-48
2021/08/22 06:58:49;;;;;;;8.85;5.83;;;25.70;72.80;;;;;;1894040;76;21038;-49
2021/08/22 07:01:19;;;;;;;10.68;5.67;;;25.60;73.00;;;;;;1893954;76;21066;-50
2021/08/22 07:03:48;;;;;;;9.55;5.80;;;25.70;73.20;;;;;;1893916;75;21022;-49
2021/08/22 07:06:18;;;;;;;6.60;5.62;;;25.70;73.10;;;;;;1893856;76;21123;-50
2021/08/22 07:08:48;;;;;;;6.28;5.58;;;25.70;72.10;;;;;;1893915;75;21019;-48
2021/08/22 07:11:18;;;;;;;8.98;5.70;;;25.70;71.80;;;;;;1893975;76;21022;-51
2021/08/22 07:13:47;;;;;;;6.97;5.28;;;25.70;72.00;;;;;;1893958;76;21053;-49
2021/08/22 07:16:16;;;;;;;7.85;5.65;;;25.80;71.90;;;;;;1893819;74;21077;-47
2021/08/22 07:18:46;;;;;;;8.78;6.20;;;25.80;72.20;;;;;;1893870;76;21088;-49
2021/08/22 07:21:15;;;;;;;8.23;5.83;;;25.80;72.60;;;;;;1893813;76;21038;-50
2021/08/22 07:23:45;;;;;;;14.23;7.08;;;25.90;72.20;;;;;;1893998;76;21088;-49
2021/08/22 07:26:14;;;;;;;10.60;6.50;;;25.90;72.10;;;;;;1893788;76;21022;-49
2021/08/22 07:28:44;;;;;;;13.28;9.95;;;25.90;71.50;;;;;;1893926;75;21018;-50
2021/08/22 07:31:15;;;;;;;10.08;6.05;;;25.80;71.60;;;;;;1893907;76;21041;-50
2021/08/22 07:33:45;;;;;;;10.18;5.95;;;25.80;71.70;;;;;;1893925;75;21104;-47
2021/08/22 07:36:14;;;;;;;8.20;5.45;;;25.80;71.40;;;;;;1893912;76;21107;-48
2021/08/22 07:38:43;;;;;;;5.12;4.62;;;25.90;70.90;;;;;;1894010;76;21026;-50
2021/08/22 07:41:13;;;;;;;9.68;5.30;;;26.00;70.10;;;;;;1893845;76;21058;-49
2021/08/22 07:43:43;;;;;;;8.83;5.53;;;26.10;70.30;;;;;;1894063;75;21007;-50
2021/08/22 07:46:12;;;;;;;11.22;6.80;;;26.10;70.20;;;;;;1893896;74;21002;-50
2021/08/22 07:48:41;;;;;;;9.00;6.53;;;26.10;70.30;;;;;;1894079;76;21506;-49
2021/08/22 07:51:11;;;;;;;10.53;6.05;;;26.20;70.80;;;;;;1893909;76;21065;-50
2021/08/22 07:53:40;;;;;;;9.28;5.97;;;26.30;71.00;;;;;;1894088;74;21012;-50
2021/08/22 07:56:10;;;;;;;8.85;5.97;;;26.40;69.90;;;;;;1893940;76;21030;-50
2021/08/22 07:58:39;;;;;;;6.47;5.50;;;26.50;69.10;;;;;;1894094;76;21046;-50
2021/08/22 08:01:09;;;;;;;5.35;4.80;;;26.60;68.30;;;;;;1893980;76;21030;-49
2021/08/22 08:03:38;;;;;;;6.97;5.22;;;26.60;67.90;;;;;;1894007;76;21084;-51
2021/08/22 08:06:08;;;;;;;8.13;5.03;;;26.70;66.80;;;;;;1893973;76;21152;-50
2021/08/22 08:08:37;;;;;;;7.15;5.62;;;26.60;67.00;;;;;;1894042;76;21147;-50
2021/08/22 08:11:07;;;;;;;8.05;5.50;;;26.50;67.50;;;;;;1893982;76;21057;-50
2021/08/22 08:13:36;;;;;;;8.95;5.17;;;26.50;67.60;;;;;;1894042;76;21029;-47
2021/08/22 08:16:06;;;;;;;8.28;6.05;;;26.60;67.60;;;;;;1893996;76;21034;-49
2021/08/22 08:18:36;;;;;;;9.85;5.97;;;26.70;67.50;;;;;;1893984;76;21046;-49
2021/08/22 08:21:06;;;;;;;7.37;5.42;;;26.70;68.10;;;;;;1893908;74;21088;-50
2021/08/22 08:23:35;;;;;;;8.55;4.67;;;26.80;68.10;;;;;;1894078;76;21136;-48
2021/08/22 08:26:05;;;;;;;7.15;5.15;;;26.80;66.90;;;;;;1893903;76;21104;-49
2021/08/22 08:28:34;;;;;;;7.05;5.58;;;26.90;66.70;;;;;;1893989;75;21002;-50
2021/08/22 08:31:03;;;;;;;8.58;5.03;;;26.80;66.40;;;;;;1893944;76;21093;-49
2021/08/22 08:33:33;;;;;;;7.67;6.42;;;26.80;66.20;;;;;;1894194;76;21046;-50
2021/08/22 08:36:02;;;;;;;6.15;5.47;;;26.70;66.80;;;;;;1893937;76;21026;-47
2021/08/22 08:38:32;;;;;;;9.63;5.10;;;26.80;66.90;;;;;;1894033;76;21034;-50
2021/08/22 08:41:02;;;;;;;7.53;5.28;;;26.90;66.40;;;;;;1893755;74;21064;-48
2021/08/22 08:43:32;;;;;;;9.93;5.28;;;27.00;66.10;;;;;;1893958;76;21023;-48
2021/08/22 08:46:11;;;;;;;7.97;5.87;;;27.10;65.60;;;;;;1893849;75;21002;-50
2021/08/22 08:48:59;;;;;;;7.33;5.47;;;27.20;64.70;;;;;;1894166;76;21042;-50
2021/08/22 08:51:50;;;;;;;8.78;5.35;;;27.20;64.50;;;;;;1893964;74;21046;-50
2021/08/22 08:54:31;;;;;;;7.67;4.90;;;27.40;64.50;;;;;;1893945;75;21022;-51
2021/08/22 08:57:01;;;;;;;7.80;5.97;;;27.40;64.20;;;;;;1893959;76;21026;-48
2021/08/22 08:59:32;;;;;;;7.80;6.37;;;27.60;64.80;;;;;;1893967;75;21026;-49
2021/08/22 09:02:01;;;;;;;9.08;5.72;;;27.60;64.60;;;;;;1893931;76;21046;-47
2021/08/22 09:04:33;;;;;;;9.28;4.85;;;27.60;64.80;;;;;;1893913;76;21030;-49
2021/08/22 09:07:39;;;;;;;6.55;5.42;;;27.70;64.40;;;;;;1893907;75;21022;-48
2021/08/22 09:10:37;;;;;;;9.98;5.70;;;27.70;64.30;;;;;;1893920;76;21116;-48
2021/08/22 09:13:35;;;;;;;9.03;5.37;;;27.80;64.60;;;;;;1893991;76;21473;-51
2021/08/22 09:16:26;;;;;;;8.20;5.85;;;27.80;64.40;;;;;;1894017;75;21175;-49
2021/08/22 09:19:24;;;;;;;8.65;6.65;;;27.90;64.40;;;;;;1894062;76;21100;-50
2021/08/22 09:22:13;;;;;;;8.68;6.17;;;27.90;64.20;;;;;;1893989;76;21046;-48
2021/08/22 09:25:00;;;;;;;9.60;6.12;;;27.90;64.00;;;;;;1840879;75;21026;-48
2021/08/22 09:28:05;;;;;;;7.22;5.40;;;27.90;64.20;;;;;;1890648;75;21116;-49
2021/08/22 09:31:00;;;;;;;8.90;5.97;;;27.90;63.70;;;;;;1894121;75;21112;-47
2021/08/22 09:34:06;;;;;;;10.58;5.47;;;27.80;63.40;;;;;;1894214;76;21018;-50
2021/08/22 09:36:45;;;;;;;;;;;27.80;63.50;;;;;;1896826;76;21042;-47
2021/08/22 09:39:48;;;;;;;5.72;4.95;;;27.80;62.00;;;;;;1824668;75;20188;-48
2021/08/22 09:42:43;;;;;;;11.28;6.00;;;27.80;62.70;;;;;;1872685;76;21106;-48
2021/08/22 09:45:37;;;;;;;8.55;5.65;;;27.90;62.80;;;;;;1872568;76;21023;-48
2021/08/22 09:48:42;;;;;;;9.30;6.03;;;28.00;63.00;;;;;;1872569;77;21039;-50
2021/08/22 09:51:41;;;;;;;6.28;5.12;;;28.00;63.20;;;;;;1872681;75;21038;-47
2021/08/22 09:54:48;;;;;;;6.20;5.25;;;28.00;63.90;;;;;;1871540;76;21089;-49
2021/08/22 09:57:32;;;;;;;11.25;5.60;;;28.10;64.40;;;;;;1872517;77;21534;-50
2021/08/22 10:00:37;;;;;;;8.85;7.00;;;28.20;63.60;;;;;;1872666;77;21023;-48
2021/08/22 10:03:43;;;;;;;9.73;6.00;;;28.30;63.50;;;;;;1872514;77;21043;-49
2021/08/22 10:06:33;;;;;;;7.05;5.53;;;28.40;62.20;;;;;;1872331;77;21015;-50
2021/08/22 10:09:20;;;;;;;9.25;5.85;;;28.50;62.20;;;;;;1872530;77;21093;-51
2021/08/22 10:12:04;;;;;;;12.43;6.12;;;28.50;61.40;;;;;;1872476;77;21445;-49
2021/08/22 10:14:36;;;;;;;9.75;6.97;;;28.50;61.20;;;;;;1872421;77;21027;-49
2021/08/22 10:17:06;;;;;;;8.25;5.62;;;28.50;61.40;;;;;;1872528;75;21421;-47
2021/08/22 10:19:36;;;;;;;13.95;5.97;;;28.50;61.00;;;;;;1872383;77;21027;-50
2021/08/22 10:22:11;;;;;;;9.28;7.85;;;28.50;61.00;;;;;;1872113;77;21039;-50
2021/08/22 10:24:44;;;;;;;11.25;6.35;;;28.50;61.10;;;;;;1872286;75;21097;-48
2021/08/22 10:27:19;;;;;;;11.08;7.75;;;28.50;61.20;;;;;;1872413;77;21043;-49
2021/08/22 10:29:55;;;;;;;7.03;6.33;;;28.50;61.00;;;;;;1859447;77;21039;-49
2021/08/22 10:32:25;;;;;;;9.58;6.50;;;28.50;60.30;;;;;;1872277;77;21106;-49
2021/08/22 10:35:16;;;;;;;26.52;15.65;;;28.40;60.40;;;;;;1872216;77;21026;-46
2021/08/22 10:37:46;;;;;;;8.93;6.45;;;28.40;61.40;;;;;;1872359;75;21023;-49
2021/08/22 10:40:30;;;;;;;9.63;6.10;;;28.50;61.40;;;;;;1872275;77;21093;-50
2021/08/22 10:43:09;;;;;;;7.42;6.40;;;28.50;60.50;;;;;;1872511;77;21086;-47
2021/08/22 10:45:52;;;;;;;9.85;6.17;;;28.60;61.00;;;;;;1872445;75;21055;-50
2021/08/22 10:48:26;;;;;;;9.43;6.00;;;28.70;60.80;;;;;;1872292;77;21034;-48
2021/08/22 10:51:07;;;;;;;11.57;7.55;;;28.80;60.60;;;;;;1872366;75;21497;-51
2021/08/22 10:53:39;;;;;;;9.15;5.55;;;28.90;60.50;;;;;;1872195;76;21030;-50
2021/08/22 10:56:29;;;;;;;8.48;6.60;;;29.00;60.20;;;;;;1872511;76;21003;-51
2021/08/22 10:59:02;;;;;;;7.37;5.37;;;29.00;59.60;;;;;;1872508;75;21051;-47
2021/08/22 11:01:32;;;;;;;6.75;5.70;;;29.10;59.90;;;;;;1872485;75;21160;-49
2021/08/22 11:04:16;;;;;;;8.60;5.80;;;29.10;59.40;;;;;;1872299;77;21093;-50
2021/08/22 11:07:03;;;;;;;6.53;5.63;;;29.20;59.60;;;;;;1872780;77;21019;-49
2021/08/22 11:09:40;;;;;;;9.55;6.28;;;29.10;59.60;;;;;;1872416;77;21019;-47
2021/08/22 11:12:26;;;;;;;11.38;6.62;;;29.00;59.50;;;;;;1872604;76;21124;-47
2021/08/22 11:14:57;;;;;;;9.80;6.35;;;28.90;59.80;;;;;;1872549;76;21051;-46
2021/08/22 11:17:27;;;;;;;9.23;6.10;;;28.80;60.20;;;;;;1872384;77;21007;-46
2021/08/22 11:20:11;;;;;;;10.85;6.30;;;28.80;60.30;;;;;;1872320;77;21101;-49
2021/08/22 11:22:41;;;;;;;9.78;6.42;;;28.90;59.90;;;;;;1872479;77;21474;-46
2021/08/22 11:25:11;;;;;;;7.30;6.17;;;29.00;60.00;;;;;;1872330;75;21031;-49
2021/08/22 11:27:41;;;;;;;6.83;5.95;;;29.10;59.10;;;;;;1872511;77;21007;-50
2021/08/22 11:30:12;;;;;;;8.25;6.25;;;29.10;58.90;;;;;;1872517;77;21094;-47
2021/08/22 11:32:46;;;;;;;7.45;6.17;;;29.10;58.50;;;;;;1872444;77;21007;-50
2021/08/22 11:35:18;;;;;;;7.10;6.05;;;29.10;58.20;;;;;;1872417;76;21027;-50
2021/08/22 11:37:48;;;;;;;6.72;5.90;;;29.00;58.30;;;;;;1872379;77;21039;-50
2021/08/22 11:40:19;;;;;;;10.65;6.55;;;28.90;58.20;;;;;;1872577;77;21031;-50
2021/08/22 11:42:50;;;;;;;7.08;5.55;;;28.70;58.90;;;;;;1889352;76;21034;-47
2021/08/22 11:45:21;;;;;;;8.08;5.72;;;28.70;59.30;;;;;;1893903;76;22216;-49
2021/08/22 11:47:51;;;;;;;8.70;6.15;;;28.70;59.10;;;;;;1893540;75;21046;-48
2021/08/22 11:50:28;;;;;;;6.90;5.53;;;28.80;59.50;;;;;;1894019;76;21092;-47
2021/08/22 11:53:01;;;;;;;10.60;5.75;;;28.80;59.40;;;;;;1894009;76;21018;-48
2021/08/22 11:55:33;;;;;;;10.60;6.45;;;28.90;59.70;;;;;;1894031;76;21070;-49
2021/08/22 11:58:20;;;;;;;7.85;6.00;;;29.00;59.30;;;;;;1893774;75;21034;-50
2021/08/22 12:00:51;;;;;;;8.95;6.45;;;28.90;59.20;;;;;;1893933;74;21084;-50
2021/08/22 12:03:23;;;;;;;6.90;5.40;;;29.00;59.00;;;;;;1893832;75;21030;-50
2021/08/22 12:05:55;;;;;;;14.15;9.15;;;29.00;58.80;;;;;;1893184;75;21100;-50
2021/08/22 12:08:25;;;;;;;7.65;5.83;;;29.00;58.60;;;;;;1893919;76;21039;-47
2021/08/22 12:11:16;;;;;;;7.00;5.60;;;29.00;58.40;;;;;;1893920;76;21034;-50
2021/08/22 12:13:46;;;;;;;6.72;5.58;;;29.00;59.20;;;;;;1893867;76;21072;-50
2021/08/22 12:16:32;;;;;;;11.80;5.87;;;29.10;59.10;;;;;;1893869;75;21124;-50
2021/08/22 12:19:21;;;;;;;7.25;5.78;;;29.10;58.80;;;;;;1893854;76;21010;-47
2021/08/22 12:21:51;;;;;;;7.45;6.15;;;29.20;58.40;;;;;;1893804;76;21127;-50
2021/08/22 12:24:29;;;;;;;9.03;5.25;;;29.30;58.70;;;;;;1893820;75;21116;-48
2021/08/22 12:27:00;;;;;;;8.00;5.47;;;29.30;58.60;;;;;;1893091;75;21100;-50
2021/08/22 12:29:38;;;;;;;9.18;6.60;;;29.30;59.00;;;;;;1894022;76;21029;-51
2021/08/22 12:32:18;;;;;;;9.70;6.58;;;29.30;58.80;;;;;;1894103;75;21098;-49
2021/08/22 12:34:49;;;;;;;11.65;7.28;;;29.30;58.50;;;;;;1894012;74;21041;-51
2021/08/22 12:37:23;;;;;;;7.40;6.00;;;29.40;59.30;;;;;;1892495;75;21075;-47
2021/08/22 12:40:01;;;;;;;8.65;5.65;;;29.40;58.70;;;;;;1892435;75;21135;-50
2021/08/22 12:42:30;;;;;;;27.35;7.47;;;29.40;58.30;;;;;;1894001;76;21109;-49
2021/08/22 12:45:00;;;;;;;12.28;6.87;;;29.30;58.50;;;;;;1893947;76;21045;-48
2021/08/22 12:47:29;;;;;;;13.03;7.97;;;29.30;58.90;;;;;;1894060;76;21158;-49
2021/08/22 12:49:59;;;;;;;14.33;6.17;;;29.30;58.70;;;;;;1894180;76;21043;-48
2021/08/22 12:52:29;;;;;;;8.18;5.70;;;29.20;58.50;;;;;;1894017;74;21018;-49
2021/08/22 12:54:58;;;;;;;7.60;6.00;;;29.10;58.70;;;;;;1894021;75;21038;-51
2021/08/22 12:57:28;;;;;;;11.30;7.03;;;29.10;58.80;;;;;;1894094;76;21046;-51
2021/08/22 12:59:57;;;;;;;10.05;6.30;;;29.10;58.90;;;;;;1893964;74;21026;-50
2021/08/22 13:02:28;;;;;;;9.83;6.40;;;29.20;59.30;;;;;;1893968;76;21101;-50
2021/08/22 13:04:57;;;;;;;10.00;6.35;;;29.20;59.00;;;;;;1893944;76;21468;-48
2021/08/22 13:07:27;;;;;;;8.63;5.87;;;29.20;59.20;;;;;;1893947;76;20999;-47
2021/08/22 13:09:56;;;;;;;9.20;5.78;;;29.10;59.40;;;;;;1893828;75;21084;-50
2021/08/22 13:12:26;;;;;;;8.80;5.83;;;29.20;59.30;;;;;;1893779;76;21026;-47